Time;durP1;ratioP1;P1;durP2;ratioP2;P2;SDS_P1;SDS_P2;PMS_P1;PMS_P2;Temp;Humidity;BMP_temperature;BMP_pressure;BME280_temperature;BME280_humidity;BME280_pressure;Samples;Min_cycle;Max_cycle;Signal;HPM_P1;HPM_P2
2023/07/24 00:00:02;;;;;;;;;;;;;;;23.85;60.87;100926.13;7394690;19;1543;-40
2023/07/24 00:02:30;;;;;;;;;;;;;;;23.78;60.97;100912.44;7394622;19;1877;-40
2023/07/24 00:04:58;;;;;;;;;;;;;;;23.80;60.72;100923.94;7395277;19;1410;-40
2023/07/24 00:07:27;;;;;;;;;;;;;;;23.81;60.84;100914.84;7394788;19;1323;-40
2023/07/24 00:09:55;;;;;;;;;;;;;;;23.79;61.07;100924.91;7394118;19;1316;-40
2023/07/24 00:12:26;;;;;;;;;;;;;;;23.81;60.88;100932.88;7395318;19;1240;-40
2023/07/24 00:14:54;;;;;;;;;;;;;;;23.78;60.85;100923.25;7395841;19;1476;-40
2023/07/24 00:17:23;;;;;;;;;;;;;;;23.73;61.18;100925.53;7396229;19;1266;-40
2023/07/24 00:19:51;;;;;;;;;;;;;;;23.80;60.88;100926.63;7394507;19;1349;-40
2023/07/24 00:22:20;;;;;;;;;;;;;;;23.75;60.74;100938.88;7395282;19;1937;-40
2023/07/24 00:24:48;;;;;;;;;;;;;;;23.66;60.78;100923.69;7393681;19;1863;-40
2023/07/24 00:27:16;;;;;;;;;;;;;;;23.72;60.59;100925.72;7395725;19;1555;-40
2023/07/24 00:29:47;;;;;;;;;;;;;;;23.73;60.43;100922.84;7395139;19;1401;-40
2023/07/24 00:32:15;;;;;;;;;;;;;;;23.69;60.75;100924.19;7393717;19;1538;-40
2023/07/24 00:34:44;;;;;;;;;;;;;;;23.68;60.66;100927.91;7394849;19;1523;-40
2023/07/24 00:37:12;;;;;;;;;;;;;;;23.72;60.71;100926.56;7395231;19;1667;-40
2023/07/24 00:39:40;;;;;;;;;;;;;;;23.89;60.28;100929.34;7394775;19;1288;-40
2023/07/24 00:42:09;;;;;;;;;;;;;;;23.94;60.03;100932.41;7394044;19;1530;-40
2023/07/24 00:44:37;;;;;;;;;;;;;;;24.05;59.61;100931.25;7394448;19;1843;-40
2023/07/24 00:47:08;;;;;;;;;;;;;;;23.88;60.39;100927.69;7394376;19;1209;-40
2023/07/24 00:49:37;;;;;;;;;;;;;;;23.73;60.58;100917.44;7394278;19;1218;-40
2023/07/24 00:52:06;;;;;;;;;;;;;;;23.62;60.81;100918.59;7394486;19;1465;-40
2023/07/24 00:54:35;;;;;;;;;;;;;;;23.80;60.53;100932.03;7395135;19;1545;-40
2023/07/24 00:57:03;;;;;;;;;;;;;;;23.97;59.87;100932.94;7394255;19;1560;-41
2023/07/24 00:59:32;;;;;;;;;;;;;;;23.88;59.77;100915.00;7394153;19;1308;-40
2023/07/24 01:02:00;;;;;;;;;;;;;;;23.83;59.95;100920.03;7394604;19;1447;-40
2023/07/24 01:04:31;;;;;;;;;;;;;;;23.73;60.43;100919.31;7393204;19;1850;-40
2023/07/24 01:06:59;;;;;;;;;;;;;;;23.69;60.23;100910.69;7393794;19;1512;-40
2023/07/24 01:09:27;;;;;;;;;;;;;;;23.67;60.79;100903.75;7394642;19;1369;-40
2023/07/24 01:11:59;;;;;;;;;;;;;;;23.74;60.53;100910.22;7393220;19;1439;-40
2023/07/24 01:14:30;;;;;;;;;;;;;;;23.73;59.99;100898.53;7394800;19;1281;-40
2023/07/24 01:16:59;;;;;;;;;;;;;;;23.68;60.00;100909.00;7393468;19;1795;-40
2023/07/24 01:19:36;;;;;;;;;;;;;;;23.94;59.46;100900.00;7391629;19;1285;-40
2023/07/24 01:22:11;;;;;;;;;;;;;;;24.18;58.51;100918.97;7391047;19;1390;-40
2023/07/24 01:24:47;;;;;;;;;;;;;;;23.88;59.57;100908.78;7391701;19;1865;-40
2023/07/24 01:27:26;;;;;;;;;;;;;;;23.63;60.12;100901.41;7400162;19;1456;-40
2023/07/24 01:29:54;;;;;;;;;;;;;;;23.78;59.82;100912.44;7400343;19;1515;-40
2023/07/24 01:32:22;;;;;;;;;;;;;;;23.96;59.34;100920.44;7400520;19;1295;-40
2023/07/24 01:34:51;;;;;;;;;;;;;;;23.69;60.09;100917.94;7400798;19;1248;-40
2023/07/24 01:37:22;;;;;;;;;;;;;;;23.80;59.80;100923.09;7401017;19;1243;-40
2023/07/24 01:39:50;;;;;;;;;;;;;;;24.03;58.98;100928.72;7400309;19;1260;-40
2023/07/24 01:42:19;;;;;;;;;;;;;;;24.20;58.17;100924.22;7400727;19;1606;-40
2023/07/24 01:44:53;;;;;;;;;;;;;;;24.12;58.49;100929.59;7398685;19;1887;-40
2023/07/24 01:47:21;;;;;;;;;;;;;;;24.23;57.44;100929.25;7401163;19;1258;-40
2023/07/24 01:49:50;;;;;;;;;;;;;;;24.29;57.44;100930.44;7400456;19;1301;-40
2023/07/24 01:52:18;;;;;;;;;;;;;;;24.25;57.56;100921.84;7400007;19;1952;-40
2023/07/24 01:54:46;;;;;;;;;;;;;;;24.25;57.50;100915.59;7400625;19;1490;-40
2023/07/24 01:57:14;;;;;;;;;;;;;;;24.26;58.12;100925.41;7399761;19;1551;-40
2023/07/24 01:59:43;;;;;;;;;;;;;;;24.30;57.27;100929.47;7400600;19;1444;-40
2023/07/24 02:02:14;;;;;;;;;;;;;;;24.24;57.04;100927.44;7399122;19;1526;-40
2023/07/24 02:04:43;;;;;;;;;;;;;;;24.24;57.51;100927.44;7396987;19;1846;-40
2023/07/24 02:07:11;;;;;;;;;;;;;;;24.23;57.32;100926.56;7398521;19;1602;-40
2023/07/24 02:09:39;;;;;;;;;;;;;;;24.20;57.36;100916.94;7398775;19;1280;-40
2023/07/24 02:12:08;;;;;;;;;;;;;;;24.22;57.18;100936.53;7398808;19;1586;-40
2023/07/24 02:14:36;;;;;;;;;;;;;;;24.18;57.36;100918.97;7399403;19;1293;-40
2023/07/24 02:17:05;;;;;;;;;;;;;;;24.20;57.23;100906.13;7399851;19;1944;-41
2023/07/24 02:19:36;;;;;;;;;;;;;;;24.13;58.40;100932.13;7398238;19;1477;-40
2023/07/24 02:22:04;;;;;;;;;;;;;;;23.83;59.31;100920.03;7399180;19;1335;-40
2023/07/24 02:24:32;;;;;;;;;;;;;;;23.66;59.63;100929.91;7397994;19;1869;-40
2023/07/24 02:27:00;;;;;;;;;;;;;;;23.62;59.71;100925.84;7398976;19;1289;-40
2023/07/24 02:29:29;;;;;;;;;;;;;;;23.61;59.54;100932.25;7399204;19;1243;-40
2023/07/24 02:31:57;;;;;;;;;;;;;;;23.56;59.72;100937.31;7398604;19;1215;-40
2023/07/24 02:34:28;;;;;;;;;;;;;;;23.78;59.21;100949.41;7399301;19;1290;-40
2023/07/24 02:36:58;;;;;;;;;;;;;;;23.70;59.58;100941.25;7398421;19;1430;-40
2023/07/24 02:39:27;;;;;;;;;;;;;;;23.68;59.27;100938.69;7398832;19;1449;-40
2023/07/24 02:41:55;;;;;;;;;;;;;;;23.61;59.29;100960.09;7397473;19;2028;-40
2023/07/24 02:44:23;;;;;;;;;;;;;;;23.78;58.90;100952.94;7398168;19;1859;-40
2023/07/24 02:46:52;;;;;;;;;;;;;;;23.91;57.78;100949.78;7397635;19;1175;-40
2023/07/24 02:49:20;;;;;;;;;;;;;;;24.07;57.50;100959.78;7398522;19;1274;-40
2023/07/24 02:51:50;;;;;;;;;;;;;;;24.15;57.14;100956.25;7395873;19;2396;-40
2023/07/24 02:54:20;;;;;;;;;;;;;;;24.12;57.66;100946.66;7398564;19;1483;-40
2023/07/24 02:56:49;;;;;;;;;;;;;;;24.17;56.97;100949.72;7398419;19;1410;-40
2023/07/24 02:59:17;;;;;;;;;;;;;;;23.87;58.51;100931.38;7398699;19;1555;-40
2023/07/24 03:01:45;;;;;;;;;;;;;;;24.05;57.58;100934.78;7397365;19;1502;-40
2023/07/24 03:04:14;;;;;;;;;;;;;;;23.94;58.06;100927.00;7397521;19;1855;-40
2023/07/24 03:06:42;;;;;;;;;;;;;;;23.62;58.56;100920.47;7397754;19;1287;-40
2023/07/24 03:09:10;;;;;;;;;;;;;;;23.59;58.98;100937.81;7397031;19;1256;-40
2023/07/24 03:11:41;;;;;;;;;;;;;;;23.52;58.92;100934.06;7397232;19;1171;-41
2023/07/24 03:14:10;;;;;;;;;;;;;;;23.46;58.72;100925.75;7397784;19;1520;-41
2023/07/24 03:16:38;;;;;;;;;;;;;;;23.52;58.64;100935.94;7396874;19;1209;-40
2023/07/24 03:19:07;;;;;;;;;;;;;;;23.50;58.86;100932.56;7396068;19;1336;-41
2023/07/24 03:21:35;;;;;;;;;;;;;;;23.45;58.89;100937.56;7397024;19;1441;-40
2023/07/24 03:24:03;;;;;;;;;;;;;;;23.42;58.81;100928.78;7396101;19;1845;-40
2023/07/24 03:26:31;;;;;;;;;;;;;;;23.68;58.22;100927.06;7395786;19;1291;-40
2023/07/24 03:29:02;;;;;;;;;;;;;;;23.86;58.00;100941.34;7396166;19;1244;-40
2023/07/24 03:31:31;;;;;;;;;;;;;;;23.97;57.33;100924.84;7396010;19;1267;-40
2023/07/24 03:33:59;;;;;;;;;;;;;;;23.69;58.44;100931.44;7396082;19;1334;-40
2023/07/24 03:36:27;;;;;;;;;;;;;;;23.47;59.26;100919.38;7397511;19;1448;-40
2023/07/24 03:38:56;;;;;;;;;;;;;;;23.42;58.80;100936.91;7394799;19;1482;-40
2023/07/24 03:41:24;;;;;;;;;;;;;;;23.66;58.44;100935.31;7396678;19;1265;-40
2023/07/24 03:43:52;;;;;;;;;;;;;;;23.95;57.65;100923.28;7395775;19;1859;-40
2023/07/24 03:46:23;;;;;;;;;;;;;;;24.07;57.10;100929.22;7396620;19;1652;-40
2023/07/24 03:48:52;;;;;;;;;;;;;;;24.12;56.98;100933.13;7393869;19;1485;-40
2023/07/24 03:51:20;;;;;;;;;;;;;;;24.14;56.83;100924.88;7395296;19;1872;-40
2023/07/24 03:53:48;;;;;;;;;;;;;;;24.13;56.80;100926.72;7394999;19;1812;-41
2023/07/24 03:56:17;;;;;;;;;;;;;;;24.14;56.97;100924.88;7392702;19;1555;-40
2023/07/24 03:58:45;;;;;;;;;;;;;;;24.20;57.15;100935.84;7395129;19;1478;-40
2023/07/24 04:01:13;;;;;;;;;;;;;;;24.03;58.15;100936.81;7394837;19;1487;-40
2023/07/24 04:03:44;;;;;;;;;;;;;;;23.81;59.28;100920.22;7393442;19;1874;-40
2023/07/24 04:06:12;;;;;;;;;;;;;;;23.68;59.58;100927.06;7393196;19;1993;-40
2023/07/24 04:08:41;;;;;;;;;;;;;;;23.58;60.01;100917.22;7393410;19;1166;-40
2023/07/24 04:11:09;;;;;;;;;;;;;;;23.60;60.31;100923.31;7394339;19;1210;-40
2023/07/24 04:13:37;;;;;;;;;;;;;;;23.63;60.31;100916.72;7396198;19;1563;-40
2023/07/24 04:16:05;;;;;;;;;;;;;;;23.66;60.52;100913.72;7396223;19;1207;-40
2023/07/24 04:18:34;;;;;;;;;;;;;;;23.67;60.43;100920.78;7396537;19;1536;-40
2023/07/24 04:21:05;;;;;;;;;;;;;;;23.67;60.49;100920.78;7393794;19;1390;-40
2023/07/24 04:23:33;;;;;;;;;;;;;;;23.74;60.35;100921.84;7396955;19;1663;-40
2023/07/24 04:26:02;;;;;;;;;;;;;;;23.74;60.59;100916.44;7394516;19;1842;-40
2023/07/24 04:28:30;;;;;;;;;;;;;;;23.75;60.96;100923.53;7396217;19;1891;-40
2023/07/24 04:31:01;;;;;;;;;;;;;;;23.71;60.90;100911.34;7397131;19;1735;-40
2023/07/24 04:33:30;;;;;;;;;;;;;;;23.82;60.64;100929.16;7396706;19;1663;-40
2023/07/24 04:35:58;;;;;;;;;;;;;;;23.77;60.92;100929.63;7397359;19;955;-40
2023/07/24 04:38:29;;;;;;;;;;;;;;;23.88;61.18;100928.50;7396544;19;1943;-40
2023/07/24 04:41:00;;;;;;;;;;;;;;;23.84;61.37;100942.50;7396168;19;1922;-40
2023/07/24 04:43:28;;;;;;;;;;;;;;;23.89;61.06;100932.06;7395265;19;1840;-40
2023/07/24 04:45:56;;;;;;;;;;;;;;;23.83;61.26;100928.16;7393899;19;1866;-40
2023/07/24 04:48:24;;;;;;;;;;;;;;;23.91;61.33;100943.53;7396128;19;1632;-40
2023/07/24 04:50:55;;;;;;;;;;;;;;;23.89;60.94;100935.59;7396342;19;1464;-40
2023/07/24 04:53:24;;;;;;;;;;;;;;;23.99;61.17;100928.22;7395938;19;1448;-40
2023/07/24 04:55:54;;;;;;;;;;;;;;;23.99;60.97;100933.63;7395674;19;1814;-40
2023/07/24 04:58:23;;;;;;;;;;;;;;;24.09;60.99;100938.84;7394859;19;1487;-40
2023/07/24 05:00:51;;;;;;;;;;;;;;;24.18;60.64;100934.34;7400443;19;1334;-40
2023/07/24 05:03:19;;;;;;;;;;;;;;;24.03;61.34;100934.13;7403198;19;1235;-40
2023/07/24 05:05:50;;;;;;;;;;;;;;;24.11;60.95;100934.13;7401562;19;1814;-40
2023/07/24 05:08:18;;;;;;;;;;;;;;;24.27;60.80;100927.06;7403712;19;1668;-41
2023/07/24 05:10:47;;;;;;;;;;;;;;;24.36;60.42;100929.63;7402259;19;1951;-40
2023/07/24 05:13:17;;;;;;;;;;;;;;;24.33;60.72;100919.16;7401192;19;1370;-40
2023/07/24 05:15:46;;;;;;;;;;;;;;;24.55;60.07;100924.94;7399224;19;1363;-40
2023/07/24 05:18:14;;;;;;;;;;;;;;;24.54;60.28;100917.84;7399316;19;1211;-40
2023/07/24 05:20:45;;;;;;;;;;;;;;;24.53;60.59;100914.31;7395483;19;1523;-40
2023/07/24 05:23:13;;;;;;;;;;;;;;;24.58;60.13;100901.13;7395707;19;1423;-40
2023/07/24 05:25:41;;;;;;;;;;;;;;;24.69;60.18;100921.56;7399660;19;1849;-41
2023/07/24 05:28:10;;;;;;;;;;;;;;;24.69;60.21;100909.91;7402219;19;1306;-41
2023/07/24 05:30:41;;;;;;;;;;;;;;;24.63;60.43;100918.69;7402156;19;1483;-41
2023/07/24 05:33:09;;;;;;;;;;;;;;;24.84;60.21;100913.59;7402162;19;1619;-40
2023/07/24 05:35:37;;;;;;;;;;;;;;;25.12;59.79;100905.94;7401347;19;1476;-40
2023/07/24 05:38:05;;;;;;;;;;;;;;;25.16;59.55;100912.69;7393294;19;1523;-41
2023/07/24 05:40:34;;;;;;;;;;;;;;;25.10;59.93;100907.97;7388390;19;1374;-41
2023/07/24 05:43:03;;;;;;;;;;;;;;;25.04;60.07;100897.84;7391088;19;1406;-41
2023/07/24 05:45:32;;;;;;;;;;;;;;;25.12;60.00;100897.81;7394794;19;1860;-41
2023/07/24 05:48:02;;;;;;;;;;;;;;;25.09;59.81;100889.22;7394831;19;1146;-41
2023/07/24 05:50:31;;;;;;;;;;;;;;;25.09;60.72;100900.91;7397034;19;1413;-41
2023/07/24 05:52:59;;;;;;;;;;;;;;;25.02;61.00;100911.53;7391523;19;1247;-41
2023/07/24 05:55:27;;;;;;;;;;;;;;;25.16;60.76;100898.34;7395026;19;1360;-41
2023/07/24 05:57:55;;;;;;;;;;;;;;;25.02;61.37;100898.00;7393881;19;1467;-41
2023/07/24 06:00:24;;;;;;;;;;;;;;;25.02;60.84;100889.91;7393030;19;1598;-41
2023/07/24 06:02:52;;;;;;;;;;;;;;;25.20;62.04;100891.56;7393332;19;1722;-41
2023/07/24 06:05:23;;;;;;;;;;;;;;;25.44;60.95;100892.53;7391580;19;1854;-41
2023/07/24 06:07:51;;;;;;;;;;;;;;;25.48;60.83;100893.88;7394780;19;1840;-41
2023/07/24 06:10:19;;;;;;;;;;;;;;;25.51;61.13;100883.53;7387319;19;1443;-42
2023/07/24 06:12:48;;;;;;;;;;;;;;;25.49;61.11;100882.03;7393555;19;1381;-42
2023/07/24 06:15:16;;;;;;;;;;;;;;;25.49;61.03;100884.75;7395657;19;1614;-42
2023/07/24 06:17:44;;;;;;;;;;;;;;;25.66;60.51;100871.94;7390103;19;1554;-42
2023/07/24 06:20:13;;;;;;;;;;;;;;;25.66;60.70;100878.19;7394120;19;1592;-42
2023/07/24 06:22:44;;;;;;;;;;;;;;;25.60;61.08;100881.63;7395081;19;1395;-42
2023/07/24 06:25:12;;;;;;;;;;;;;;;25.64;61.00;100882.13;7397142;19;1862;-47
2023/07/24 06:27:40;;;;;;;;;;;;;;;25.90;60.25;100876.38;7390885;19;1714;-42
2023/07/24 06:30:09;;;;;;;;;;;;;;;25.86;60.62;100875.06;7392887;19;1196;-42
2023/07/24 06:32:37;;;;;;;;;;;;;;;26.01;59.86;100873.31;7392669;19;1437;-42
2023/07/24 06:35:06;;;;;;;;;;;;;;;26.16;59.35;100871.50;7393192;19;1539;-42
2023/07/24 06:37:34;;;;;;;;;;;;;;;26.25;59.32;100882.28;7392940;19;1192;-42
2023/07/24 06:40:06;;;;;;;;;;;;;;;26.14;59.88;100873.56;7393491;19;1212;-42
2023/07/24 06:42:34;;;;;;;;;;;;;;;26.15;59.92;100888.78;7392200;19;1508;-45
2023/07/24 06:45:02;;;;;;;;;;;;;;;26.10;60.76;100887.63;7389695;19;1849;-42
2023/07/24 06:47:31;;;;;;;;;;;;;;;26.07;60.40;100875.28;7389267;19;1485;-42
2023/07/24 06:50:00;;;;;;;;;;;;;;;26.01;60.56;100877.88;7392831;19;1394;-42
2023/07/24 06:52:28;;;;;;;;;;;;;;;25.75;61.17;100884.44;7393514;19;1150;-42
2023/07/24 06:54:57;;;;;;;;;;;;;;;26.03;60.47;100879.38;7389531;19;1324;-42
2023/07/24 06:57:28;;;;;;;;;;;;;;;26.02;60.67;100888.53;7391020;19;1244;-42
2023/07/24 06:59:57;;;;;;;;;;;;;;;25.94;60.83;100889.44;7391615;19;1130;-44
2023/07/24 07:02:25;;;;;;;;;;;;;;;25.43;62.95;100880.88;7386369;19;1473;-46
2023/07/24 07:04:53;;;;;;;;;;;;;;;24.93;64.20;100896.38;7390272;19;1850;-43
2023/07/24 07:07:21;;;;;;;;;;;;;;;24.63;63.44;100883.53;7389797;19;1537;-44
2023/07/24 07:09:50;;;;;;;;;;;;;;;24.63;62.97;100870.88;7388576;19;1492;-44
2023/07/24 07:12:18;;;;;;;;;;;;;;;24.70;62.25;100871.03;7389106;19;1382;-43
2023/07/24 07:14:49;;;;;;;;;;;;;;;24.71;62.16;100867.31;7388324;19;1222;-44
2023/07/24 07:17:17;;;;;;;;;;;;;;;24.73;60.77;100854.44;7390671;19;1144;-43
2023/07/24 07:19:48;;;;;;;;;;;;;;;24.75;60.67;100871.34;7388606;19;1555;-44
2023/07/24 07:22:17;;;;;;;;;;;;;;;24.80;61.69;100841.94;7386680;19;1236;-43
2023/07/24 07:24:46;;;;;;;;;;;;;;;24.78;61.33;100861.03;7387468;19;1602;-43
2023/07/24 07:27:17;;;;;;;;;;;;;;;24.79;61.18;100851.09;7388923;19;1398;-44
2023/07/24 07:29:45;;;;;;;;;;;;;;;24.75;61.15;100866.81;7390157;19;1500;-44
2023/07/24 07:32:16;;;;;;;;;;;;;;;24.27;61.28;100790.09;7390869;19;1581;-43
2023/07/24 07:34:44;;;;;;;;;;;;;;;24.77;60.56;100869.31;7388065;19;1252;-43
2023/07/24 07:37:13;;;;;;;;;;;;;;;24.69;59.74;100850.41;7388468;19;1121;-43
2023/07/24 07:39:41;;;;;;;;;;;;;;;24.63;59.29;100849.25;7387570;19;1361;-43
2023/07/24 07:42:09;;;;;;;;;;;;;;;24.64;59.07;100847.38;7389378;19;1306;-43
2023/07/24 07:44:38;;;;;;;;;;;;;;;24.66;59.86;100857.00;7390981;19;1548;-43
2023/07/24 07:47:06;;;;;;;;;;;;;;;24.66;59.83;100835.38;7385879;19;1853;-43
2023/07/24 07:49:37;;;;;;;;;;;;;;;24.65;59.84;100849.06;7388808;19;1433;-40
2023/07/24 07:52:06;;;;;;;;;;;;;;;24.59;58.64;100835.22;7389937;19;1348;-40
2023/07/24 07:54:34;;;;;;;;;;;;;;;24.69;58.07;100840.44;7391310;19;1228;-40
2023/07/24 07:57:02;;;;;;;;;;;;;;;24.59;57.95;100834.34;7390266;19;1207;-40
2023/07/24 07:59:30;;;;;;;;;;;;;;;24.66;58.02;100832.66;7389016;19;1300;-40
2023/07/24 08:01:59;;;;;;;;;;;;;;;24.58;57.56;100836.22;7388274;19;1441;-40
2023/07/24 08:04:27;;;;;;;;;;;;;;;24.61;57.67;100816.97;7385562;19;1385;-40
2023/07/24 08:06:58;;;;;;;;;;;;;;;24.53;57.27;100819.69;7388138;19;1900;-40
2023/07/24 08:09:26;;;;;;;;;;;;;;;24.03;58.22;100747.72;7389841;19;1548;-40
2023/07/24 08:11:54;;;;;;;;;;;;;;;24.67;56.90;100823.56;7389556;19;1438;-40
2023/07/24 08:14:23;;;;;;;;;;;;;;;24.75;56.94;100817.25;7386040;19;1240;-40
2023/07/24 08:16:52;;;;;;;;;;;;;;;24.76;57.00;100811.69;7388065;19;1211;-40
2023/07/24 08:19:21;;;;;;;;;;;;;;;24.57;56.48;100803.94;7383846;19;1437;-39
2023/07/24 08:21:49;;;;;;;;;;;;;;;24.65;57.11;100808.50;7389108;19;1530;-39
2023/07/24 08:24:23;;;;;;;;;;;;;;;24.79;57.16;100803.25;7392157;19;1613;-40
2023/07/24 08:26:51;;;;;;;;;;;;;;;24.72;55.19;100799.53;7386587;19;1855;-40
2023/07/24 08:29:19;;;;;;;;;;;;;;;24.75;56.63;100812.72;7387862;19;1550;-39
2023/07/24 08:31:48;;;;;;;;;;;;;;;24.85;56.54;100812.53;7390546;19;1542;-39
2023/07/24 08:34:16;;;;;;;;;;;;;;;24.79;55.87;100802.41;7389243;19;1228;-39
2023/07/24 08:36:45;;;;;;;;;;;;;;;24.78;56.08;100806.94;7398517;19;1586;-40
2023/07/24 08:39:13;;;;;;;;;;;;;;;24.88;55.85;100798.63;7397944;19;1506;-40
2023/07/24 08:41:44;;;;;;;;;;;;;;;24.96;56.02;100797.78;7398979;19;1443;-40
2023/07/24 08:44:13;;;;;;;;;;;;;;;24.98;56.15;100780.34;7397040;19;1251;-40
2023/07/24 08:46:45;;;;;;;;;;;;;;;25.10;56.52;100790.78;7393361;19;1881;-40
2023/07/24 08:49:14;;;;;;;;;;;;;;;25.18;56.80;100802.41;7397363;19;1189;-40
2023/07/24 08:51:42;;;;;;;;;;;;;;;25.09;57.00;100792.66;7395712;19;1283;-40
2023/07/24 08:54:11;;;;;;;;;;;;;;;25.09;57.38;100791.78;7394675;19;1444;-40
2023/07/24 08:56:40;;;;;;;;;;;;;;;25.15;57.21;100793.81;7392843;19;1354;-40
2023/07/24 08:59:10;;;;;;;;;;;;;;;25.28;57.52;100796.81;7394920;19;1631;-40
2023/07/24 09:01:39;;;;;;;;;;;;;;;25.17;58.06;100791.78;7395511;19;1577;-40
2023/07/24 09:04:07;;;;;;;;;;;;;;;25.16;58.53;100776.56;7394308;19;1567;-40
2023/07/24 09:06:35;;;;;;;;;;;;;;;25.10;59.00;100786.22;7387431;19;1877;-40
2023/07/24 09:09:04;;;;;;;;;;;;;;;25.12;59.00;100769.81;7392985;19;1326;-40
2023/07/24 09:11:32;;;;;;;;;;;;;;;25.14;59.16;100774.03;7386207;19;1570;-40
2023/07/24 09:14:00;;;;;;;;;;;;;;;25.10;59.28;100767.28;7393383;19;1139;-40
2023/07/24 09:16:31;;;;;;;;;;;;;;;25.12;59.60;100769.81;7394311;19;1503;-40
2023/07/24 09:18:59;;;;;;;;;;;;;;;25.15;59.38;100766.75;7394597;19;1564;-40
2023/07/24 09:21:31;;;;;;;;;;;;;;;25.16;59.59;100757.63;7395405;19;1544;-40
2023/07/24 09:24:00;;;;;;;;;;;;;;;25.16;59.66;100776.56;7393611;19;1656;-40
2023/07/24 09:26:28;;;;;;;;;;;;;;;25.19;59.87;100752.69;7391877;19;1872;-40
2023/07/24 09:28:57;;;;;;;;;;;;;;;25.17;59.94;100767.44;7392215;19;1290;-40
2023/07/24 09:31:36;;;;;;;;;;;;;;;25.17;60.16;100743.06;7394206;19;1267;-40
2023/07/24 09:34:16;;;;;;;;;;;;;;;25.26;60.26;100755.56;7394778;19;1469;-40
2023/07/24 09:36:44;;;;;;;;;;;;;;;25.46;60.08;100758.66;7393199;19;1478;-41
2023/07/24 09:39:13;;;;;;;;;;;;;;;25.55;59.83;100746.75;7391958;19;1413;-41
2023/07/24 09:41:42;;;;;;;;;;;;;;;25.32;60.13;100744.03;7394619;19;1135;-40
2023/07/24 09:44:10;;;;;;;;;;;;;;;25.10;59.17;100744.78;7395405;19;1098;-41
2023/07/24 09:46:38;;;;;;;;;;;;;;;24.91;59.09;100749.63;7390244;19;1858;-40
2023/07/24 09:49:09;;;;;;;;;;;;;;;25.05;58.57;100733.66;7391390;19;1426;-40
2023/07/24 09:51:38;;;;;;;;;;;;;;;24.95;57.71;100732.00;7392705;19;1366;-40
2023/07/24 09:54:09;;;;;;;;;;;;;;;24.98;58.31;100722.69;7392225;19;1181;-40
2023/07/24 09:56:39;;;;;;;;;;;;;;;24.95;57.82;100726.59;7392581;19;1254;-40
2023/07/24 09:59:08;;;;;;;;;;;;;;;25.23;58.39;100728.88;7393359;19;1177;-40
2023/07/24 10:01:37;;;;;;;;;;;;;;;25.36;57.53;100718.28;7393576;19;1568;-38
2023/07/24 10:04:06;;;;;;;;;;;;;;;25.51;57.79;100725.66;7390706;19;1250;-40
2023/07/24 10:06:37;;;;;;;;;;;;;;;25.58;57.77;100711.19;7389755;19;1845;-40
2023/07/24 10:09:06;;;;;;;;;;;;;;;25.60;57.86;100709.16;7392993;19;1371;-40
2023/07/24 10:11:34;;;;;;;;;;;;;;;25.59;58.61;100707.47;7394735;19;1553;-40
2023/07/24 10:14:03;;;;;;;;;;;;;;;25.59;58.50;100685.81;7391419;19;1051;-40
2023/07/24 10:16:32;;;;;;;;;;;;;;;25.66;58.61;100688.63;7393595;19;1619;-40
2023/07/24 10:19:00;;;;;;;;;;;;;;;25.69;58.48;100690.97;7390843;19;1616;-40
2023/07/24 10:21:29;;;;;;;;;;;;;;;25.81;58.68;100677.84;7390534;19;1980;-40
2023/07/24 10:24:02;;;;;;;;;;;;;;;25.88;58.13;100684.19;7393297;19;1598;-38
2023/07/24 10:26:30;;;;;;;;;;;;;;;25.87;58.60;100668.16;7390087;19;1851;-38
2023/07/24 10:28:59;;;;;;;;;;;;;;;25.90;59.14;100692.16;7390573;19;1617;-37
2023/07/24 10:31:29;;;;;;;;;;;;;;;25.90;59.28;100670.47;7390993;19;1524;-38
2023/07/24 10:33:58;;;;;;;;;;;;;;;25.78;60.04;100675.50;7391669;19;1556;-38
2023/07/24 10:36:26;;;;;;;;;;;;;;;25.85;59.87;100670.19;7390934;19;1218;-38
2023/07/24 10:38:56;;;;;;;;;;;;;;;25.89;59.50;100652.56;7390946;19;1599;-38
2023/07/24 10:41:36;;;;;;;;;;;;;;;25.81;59.46;100658.88;7392485;19;1329;-38
2023/07/24 10:44:05;;;;;;;;;;;;;;;25.82;60.25;100652.44;7391823;19;1207;-39
2023/07/24 10:46:38;;;;;;;;;;;;;;;25.92;59.55;100665.75;7389241;19;1857;-39
2023/07/24 10:49:06;;;;;;;;;;;;;;;25.92;59.58;100655.75;7393723;19;1688;-43
2023/07/24 10:51:37;;;;;;;;;;;;;;;25.89;59.51;100649.84;7393091;19;1283;-40
2023/07/24 10:54:06;;;;;;;;;;;;;;;25.92;59.93;100652.19;7391965;19;1652;-43
2023/07/24 10:56:38;;;;;;;;;;;;;;;25.87;59.84;100643.78;7387635;19;1551;-41
2023/07/24 10:59:07;;;;;;;;;;;;;;;25.89;60.32;100639.00;7392483;19;1513;-40
2023/07/24 11:01:36;;;;;;;;;;;;;;;25.84;59.86;100638.69;7391672;19;1892;-40
2023/07/24 11:04:04;;;;;;;;;;;;;;;25.80;60.23;100616.56;7392098;19;1200;-40
2023/07/24 11:06:33;;;;;;;;;;;;;;;25.87;60.60;100635.66;7391228;19;1860;-40
2023/07/24 11:09:02;;;;;;;;;;;;;;;25.93;60.39;100635.75;7392146;19;1564;-40
2023/07/24 11:11:30;;;;;;;;;;;;;;;25.82;60.70;100628.03;7391264;19;1575;-39
2023/07/24 11:14:02;;;;;;;;;;;;;;;25.83;60.91;100628.91;7392803;19;1235;-39
2023/07/24 11:16:31;;;;;;;;;;;;;;;25.75;60.65;100625.25;7389745;19;1208;-40
2023/07/24 11:18:59;;;;;;;;;;;;;;;25.82;61.19;100616.38;7387928;19;1753;-40
2023/07/24 11:21:28;;;;;;;;;;;;;;;25.76;61.18;100610.66;7388621;19;1877;-38
2023/07/24 11:23:58;;;;;;;;;;;;;;;25.78;60.87;100616.75;7390178;19;1325;-38
2023/07/24 11:26:28;;;;;;;;;;;;;;;25.90;60.61;100611.75;7391061;19;1845;-37
2023/07/24 11:28:56;;;;;;;;;;;;;;;25.91;60.58;100601.78;7389659;19;1541;-38
2023/07/24 11:31:27;;;;;;;;;;;;;;;25.92;60.39;100606.97;7387198;19;1719;-38
2023/07/24 11:33:55;;;;;;;;;;;;;;;25.98;60.66;100608.09;7388667;19;1534;-38
2023/07/24 11:36:24;;;;;;;;;;;;;;;25.96;60.48;100612.88;7390732;19;1467;-38
2023/07/24 11:38:52;;;;;;;;;;;;;;;25.93;60.82;100599.72;7392016;19;1037;-38
2023/07/24 11:41:21;;;;;;;;;;;;;;;25.90;60.78;100600.03;7392213;19;1132;-38
2023/07/24 11:43:49;;;;;;;;;;;;;;;25.96;60.50;100600.19;7391877;19;1482;-38
2023/07/24 11:46:31;;;;;;;;;;;;;;;25.95;60.74;100594.94;7390975;19;1877;-38
2023/07/24 11:48:59;;;;;;;;;;;;;;;25.96;60.57;100605.59;7391224;19;1599;-37
2023/07/24 11:51:28;;;;;;;;;;;;;;;25.92;60.76;100593.44;7392831;19;1617;-38
2023/07/24 11:54:06;;;;;;;;;;;;;;;25.95;61.12;100609.31;7393696;19;1378;-38
2023/07/24 11:56:34;;;;;;;;;;;;;;;25.95;60.69;100603.91;7390166;19;1846;-37
2023/07/24 11:59:11;;;;;;;;;;;;;;;25.96;60.96;100604.75;7388948;19;1776;-38
2023/07/24 12:01:42;;;;;;;;;;;;;;;25.96;61.19;100599.31;7389470;19;1908;-38
2023/07/24 12:04:10;;;;;;;;;;;;;;;25.92;60.90;100588.00;7391947;19;1610;-37
2023/07/24 12:06:40;;;;;;;;;;;;;;;25.73;57.50;100607.50;7390865;19;1880;-38
2023/07/24 12:09:08;;;;;;;;;;;;;;;25.53;58.62;100588.22;7387942;19;1508;-38
2023/07/24 12:11:41;;;;;;;;;;;;;;;25.67;59.48;100595.53;7387506;19;1357;-38
2023/07/24 12:14:10;;;;;;;;;;;;;;;25.84;59.37;100592.66;7390562;19;1505;-38
2023/07/24 12:16:38;;;;;;;;;;;;;;;25.84;59.38;100590.78;7389409;19;1228;-38
2023/07/24 12:19:09;;;;;;;;;;;;;;;25.70;60.46;100595.16;7387495;19;1576;-37
2023/07/24 12:21:37;;;;;;;;;;;;;;;24.96;61.17;100587.59;6862032;19;9999609;-38
2023/07/24 12:24:06;;;;;;;;;;;;;;;24.76;61.25;100586.38;7380967;19;1858;-37
2023/07/24 12:26:35;;;;;;;;;;;;;;;24.53;61.55;100586.31;7386540;19;1857;-37
2023/07/24 12:29:03;;;;;;;;;;;;;;;24.34;61.80;100588.41;7384991;19;1440;-37
2023/07/24 12:31:31;;;;;;;;;;;;;;;24.38;62.40;100583.50;7386457;19;1588;-37
2023/07/24 12:34:00;;;;;;;;;;;;;;;24.33;62.72;100578.63;7387591;19;1508;-37
2023/07/24 12:36:30;;;;;;;;;;;;;;;24.34;62.75;100579.47;7384900;19;1565;-37
2023/07/24 12:38:59;;;;;;;;;;;;;;;24.30;63.29;100568.16;7383491;19;1580;-38
2023/07/24 12:41:27;;;;;;;;;;;;;;;24.22;63.15;100563.63;7385690;19;1219;-38
2023/07/24 12:43:56;;;;;;;;;;;;;;;24.19;63.35;100569.41;7385147;19;1473;-38
2023/07/24 12:46:24;;;;;;;;;;;;;;;24.26;62.93;100564.13;7388308;19;1274;-38
2023/07/24 12:48:52;;;;;;;;;;;;;;;24.40;62.06;100567.97;7383786;19;1847;-38
2023/07/24 12:51:20;;;;;;;;;;;;;;;24.14;62.45;100547.47;7382698;19;1481;-38
2023/07/24 12:53:51;;;;;;;;;;;;;;;24.19;62.24;100550.50;7386102;19;1457;-38
2023/07/24 12:56:20;;;;;;;;;;;;;;;24.22;62.03;100547.41;7383316;19;1583;-38